createdAt,value
2023-02-28T08:49:33.766Z,3.00
2023-02-28T08:52:01.366Z,3.25
2023-02-28T08:54:31.722Z,3.30
2023-02-28T08:56:59.542Z,3.95
2023-02-28T09:04:23.387Z,3.40
2023-02-28T09:06:52.195Z,3.17
2023-02-28T09:11:48.088Z,3.87
2023-02-28T09:16:43.603Z,4.12
2023-02-28T09:19:13.124Z,3.62
2023-02-28T09:21:41.143Z,3.67
2023-02-28T09:24:09.155Z,5.22
2023-02-28T09:26:43.151Z,4.65
2023-02-28T09:29:17.720Z,5.50
2023-02-28T09:31:45.594Z,3.47
2023-02-28T09:36:45.812Z,4.00
2023-02-28T09:39:16.614Z,3.87
2023-02-28T09:41:51.074Z,3.40
2023-02-28T09:44:38.163Z,4.60
2023-02-28T09:47:25.962Z,3.90
2023-02-28T09:52:25.663Z,3.75
2023-02-28T09:54:53.376Z,4.43
2023-02-28T09:57:40.132Z,4.15
2023-02-28T10:00:35.522Z,5.15
2023-02-28T10:06:04.644Z,3.45
2023-02-28T10:08:53.464Z,3.58
2023-02-28T10:11:23.826Z,4.70
2023-02-28T10:14:05.533Z,4.20
2023-02-28T10:16:37.244Z,4.00
2023-02-28T10:19:11.261Z,3.60
2023-02-28T10:21:47.714Z,3.28
2023-02-28T10:24:24.435Z,3.60
2023-02-28T10:26:53.770Z,3.92
2023-02-28T10:29:21.596Z,3.28
2023-02-28T10:31:49.303Z,4.15
2023-02-28T10:34:17.737Z,3.80
2023-02-28T10:36:46.367Z,3.83
2023-02-28T10:39:37.517Z,3.75
2023-02-28T10:42:05.725Z,3.40
2023-02-28T10:44:33.522Z,3.85
2023-02-28T10:47:01.260Z,3.30
2023-02-28T10:49:30.177Z,4.22
2023-02-28T10:52:00.218Z,3.62
2023-02-28T10:54:31.922Z,3.80
2023-02-28T10:57:19.654Z,3.28
2023-02-28T10:59:53.592Z,4.15
2023-02-28T11:02:37.448Z,4.57
2023-02-28T11:05:31.120Z,4.62
2023-02-28T11:08:17.772Z,4.03
2023-02-28T11:10:47.409Z,3.70
2023-02-28T11:13:20.850Z,3.90
2023-02-28T11:15:53.715Z,3.92
2023-02-28T11:18:40.311Z,4.32
2023-02-28T11:21:09.176Z,3.37
2023-02-28T11:23:38.377Z,3.55
2023-02-28T11:26:10.662Z,4.68
2023-02-28T11:28:40.937Z,5.50
2023-02-28T11:31:17.643Z,3.10
2023-02-28T11:33:52.046Z,3.17
2023-02-28T11:36:27.881Z,3.60
2023-02-28T11:39:03.489Z,2.95
2023-02-28T11:41:56.207Z,3.60
2023-02-28T11:44:56.088Z,4.18
2023-02-28T11:47:35.518Z,4.50
2023-02-28T11:50:20.338Z,3.42
2023-02-28T12:01:22.960Z,3.70
2023-02-28T12:11:37.191Z,4.25
2023-02-28T12:16:47.573Z,3.67
2023-02-28T12:22:37.776Z,3.65
2023-02-28T13:04:27.309Z,4.50
2023-02-28T13:07:19.679Z,4.65
2023-02-28T13:27:27.111Z,5.35
2023-02-28T13:29:55.574Z,4.60
2023-02-28T13:32:26.104Z,4.68
2023-02-28T13:34:53.451Z,4.53
2023-02-28T13:37:26.894Z,4.72
2023-02-28T13:39:57.060Z,4.68
2023-02-28T13:42:35.427Z,5.39
2023-02-28T13:45:03.030Z,5.70
2023-02-28T13:47:47.876Z,5.60
2023-02-28T13:50:25.345Z,5.40
2023-02-28T13:53:14.633Z,5.50
2023-02-28T13:55:57.160Z,5.43
2023-02-28T13:58:27.946Z,5.90
2023-02-28T14:01:21.328Z,5.34
2023-02-28T14:04:15.564Z,5.20
2023-02-28T14:06:52.289Z,5.46
2023-02-28T14:09:26.130Z,5.40
2023-02-28T14:11:54.131Z,4.90
2023-02-28T14:14:37.165Z,4.90
2023-02-28T14:17:06.905Z,5.25
2023-02-28T14:19:37.266Z,5.60
2023-02-28T14:22:33.430Z,5.17
2023-02-28T14:25:01.361Z,5.40
2023-02-28T14:27:40.799Z,8.17
2023-02-28T14:30:34.352Z,6.78
2023-02-28T14:33:23.048Z,6.60
2023-02-28T14:35:56.982Z,6.15
2023-02-28T14:38:32.405Z,6.07
2023-02-28T14:41:04.675Z,4.85
2023-02-28T14:43:32.111Z,5.20
2023-02-28T14:46:02.105Z,4.70
2023-02-28T14:48:29.761Z,5.53
2023-02-28T14:51:01.664Z,4.50
2023-02-28T14:53:35.941Z,5.00
2023-02-28T14:56:03.671Z,4.75
2023-02-28T14:58:33.637Z,7.90
2023-02-28T15:01:03.939Z,6.97
2023-02-28T15:03:37.656Z,5.18
2023-02-28T15:06:14.334Z,5.20
2023-02-28T15:08:42.243Z,4.75
2023-02-28T15:11:20.299Z,6.20
2023-02-28T15:13:50.563Z,5.57
2023-02-28T15:16:21.985Z,6.25
2023-02-28T15:18:57.239Z,9.68
2023-02-28T15:21:26.869Z,6.00
2023-02-28T15:24:01.305Z,5.10
2023-02-28T15:26:35.719Z,4.65
2023-02-28T15:29:07.375Z,4.37
2023-02-28T15:31:56.147Z,4.60
2023-02-28T15:34:44.452Z,4.57
2023-02-28T15:37:28.179Z,4.63
2023-02-28T15:39:57.275Z,4.87
2023-02-28T15:42:29.356Z,4.95
2023-02-28T15:44:58.332Z,5.28
2023-02-28T15:47:28.642Z,5.62
2023-02-28T15:50:05.511Z,5.55
2023-02-28T15:52:43.024Z,5.30
2023-02-28T15:55:22.761Z,5.62
2023-02-28T15:57:59.776Z,5.60
2023-02-28T16:00:29.783Z,5.82
2023-02-28T16:02:57.760Z,5.47
2023-02-28T16:05:34.090Z,5.70
2023-02-28T16:08:13.136Z,5.25
2023-02-28T16:10:40.909Z,5.18
2023-02-28T16:13:12.970Z,5.68
2023-02-28T16:15:44.298Z,6.00
2023-02-28T16:18:13.428Z,6.53
2023-02-28T16:20:41.291Z,6.25
2023-02-28T16:23:09.216Z,6.37
2023-02-28T16:25:45.672Z,5.93
2023-02-28T16:28:20.721Z,6.37
2023-02-28T16:30:48.561Z,6.15
2023-02-28T16:33:16.468Z,5.80
2023-02-28T16:35:44.282Z,6.18
2023-02-28T16:38:12.051Z,7.12
2023-02-28T16:40:40.165Z,7.40
2023-02-28T16:43:11.408Z,7.00
2023-02-28T16:45:39.733Z,7.14
2023-02-28T16:48:13.702Z,7.25
2023-02-28T16:50:41.660Z,7.22
2023-02-28T16:53:09.182Z,7.75
2023-02-28T16:55:37.018Z,8.73
2023-02-28T16:58:04.980Z,7.45
2023-02-28T17:00:33.798Z,8.02
2023-02-28T17:03:05.759Z,7.40
2023-02-28T17:05:37.274Z,7.50
2023-02-28T17:08:04.839Z,7.57
2023-02-28T17:10:33.068Z,7.80
2023-02-28T17:13:14.146Z,7.93
2023-02-28T17:15:43.294Z,7.78
2023-02-28T17:18:16.585Z,8.15
2023-02-28T17:20:44.455Z,8.33
2023-02-28T17:23:13.115Z,8.20
2023-02-28T17:25:41.304Z,8.70
2023-02-28T17:28:10.737Z,8.90
2023-02-28T17:30:38.979Z,9.38
2023-02-28T17:33:07.002Z,9.50
2023-02-28T17:35:35.612Z,9.75
2023-02-28T17:38:03.470Z,9.38
2023-02-28T17:40:31.498Z,8.93
2023-02-28T17:43:00.085Z,8.27
2023-02-28T17:45:28.546Z,8.50
2023-02-28T17:47:56.904Z,8.48
2023-02-28T17:50:25.167Z,8.63
2023-02-28T17:52:53.327Z,8.43
2023-02-28T17:55:21.138Z,8.43
2023-02-28T17:57:49.046Z,9.13
2023-02-28T18:00:18.853Z,9.05
2023-02-28T18:02:47.565Z,10.63
2023-02-28T18:05:15.469Z,12.45
2023-02-28T18:07:43.855Z,16.83
2023-02-28T18:10:20.384Z,11.30
2023-02-28T18:12:52.137Z,10.22
2023-02-28T18:15:22.654Z,9.80
2023-02-28T18:17:51.438Z,9.65
2023-02-28T18:20:20.076Z,9.75
2023-02-28T18:22:48.923Z,9.95
2023-02-28T18:25:18.091Z,10.15
2023-02-28T18:27:58.719Z,10.35
2023-02-28T18:30:31.836Z,10.65
2023-02-28T18:33:04.598Z,11.10
2023-02-28T18:35:36.625Z,9.97
2023-02-28T18:38:12.321Z,11.27
2023-02-28T18:40:43.640Z,11.05
2023-02-28T18:43:14.500Z,11.00
2023-02-28T18:45:43.720Z,10.68
2023-02-28T18:48:16.118Z,10.74
2023-02-28T18:50:46.928Z,10.52
2023-02-28T18:53:15.829Z,10.48
2023-02-28T18:55:45.703Z,11.50
2023-02-28T18:58:15.109Z,10.40
2023-02-28T19:00:45.055Z,13.47
2023-02-28T19:03:15.440Z,11.70
2023-02-28T19:05:45.159Z,11.57
2023-02-28T19:08:14.704Z,12.07
2023-02-28T19:10:44.201Z,11.52
2023-02-28T19:13:12.533Z,11.95
2023-02-28T19:15:41.356Z,13.13
2023-02-28T19:18:10.485Z,13.23
2023-02-28T19:20:40.169Z,12.55
2023-02-28T19:23:10.906Z,14.13
2023-02-28T19:25:42.978Z,13.10
2023-02-28T19:28:12.154Z,12.63
2023-02-28T19:30:42.856Z,13.10
2023-02-28T19:33:12.992Z,18.80
2023-02-28T19:35:43.537Z,16.00
2023-02-28T19:38:14.153Z,12.37
2023-02-28T19:40:43.189Z,14.85
2023-02-28T19:43:15.707Z,13.13
2023-02-28T19:45:46.112Z,12.10
2023-02-28T19:48:17.073Z,12.86
2023-02-28T19:50:46.714Z,11.88
2023-02-28T19:53:16.071Z,12.05
2023-02-28T19:55:48.609Z,12.50
2023-02-28T19:58:18.378Z,24.98
2023-02-28T20:00:47.991Z,18.43
2023-02-28T20:03:19.114Z,24.60
2023-02-28T20:05:48.412Z,19.75
2023-02-28T20:08:18.184Z,20.23
2023-02-28T20:10:47.470Z,20.58
2023-02-28T20:13:16.807Z,19.05
2023-02-28T20:15:51.338Z,16.80
2023-02-28T20:18:19.932Z,20.52
2023-02-28T20:20:49.062Z,18.70
2023-02-28T20:23:18.174Z,17.00
2023-02-28T20:25:50.005Z,17.92
2023-02-28T20:28:20.034Z,15.80
2023-02-28T20:30:51.576Z,15.48
2023-02-28T20:33:20.897Z,14.80
2023-02-28T20:35:53.312Z,14.27
2023-02-28T20:38:22.649Z,14.07
2023-02-28T20:40:56.364Z,14.93
2023-02-28T20:43:24.789Z,15.04
2023-02-28T20:45:58.933Z,15.32
2023-02-28T20:48:28.912Z,14.02
2023-02-28T20:50:58.982Z,14.77
2023-02-28T20:53:28.220Z,15.07
2023-02-28T20:56:18.201Z,14.57
2023-02-28T20:58:48.347Z,14.40
2023-02-28T21:01:28.108Z,14.55
2023-02-28T21:03:59.560Z,14.32
2023-02-28T21:06:31.519Z,15.40
2023-02-28T21:09:00.011Z,15.38
2023-02-28T21:11:30.082Z,14.32
2023-02-28T21:14:06.857Z,14.30
2023-02-28T21:16:37.497Z,14.90
2023-02-28T21:19:06.793Z,15.65
2023-02-28T21:21:39.978Z,15.90
2023-02-28T21:24:08.187Z,16.08
2023-02-28T21:26:35.774Z,15.77
2023-02-28T21:29:04.559Z,16.40
2023-02-28T21:31:34.192Z,16.60
2023-02-28T21:34:04.042Z,16.52
2023-02-28T21:36:35.562Z,16.02
2023-02-28T21:39:10.105Z,17.17
2023-02-28T21:41:41.641Z,16.23
2023-02-28T21:44:19.336Z,15.85
2023-02-28T21:46:49.338Z,15.68
2023-02-28T21:49:17.512Z,15.33
2023-02-28T21:51:45.014Z,15.05
2023-02-28T21:54:13.103Z,16.08
2023-02-28T21:56:40.811Z,15.90
2023-02-28T21:59:09.691Z,16.00
2023-02-28T22:01:44.443Z,16.73
2023-02-28T22:04:21.593Z,17.00
2023-02-28T22:06:54.658Z,18.33
2023-02-28T22:09:22.845Z,16.75
2023-02-28T22:11:50.691Z,16.00
2023-02-28T22:14:18.586Z,16.58
2023-02-28T22:16:52.254Z,16.60
2023-02-28T22:19:23.145Z,17.23
2023-02-28T22:21:51.697Z,19.63
2023-02-28T22:24:20.858Z,22.58
2023-02-28T22:26:49.562Z,20.98
2023-02-28T22:29:17.318Z,20.17
2023-02-28T22:31:44.801Z,19.95
2023-02-28T22:34:12.981Z,19.00
2023-02-28T22:36:42.118Z,20.12
2023-02-28T22:39:10.532Z,20.88
2023-02-28T22:41:38.970Z,19.85
2023-02-28T22:44:07.400Z,18.90
2023-02-28T22:46:35.923Z,19.98
2023-02-28T22:49:05.283Z,20.02
2023-02-28T22:51:33.403Z,18.80
2023-02-28T22:54:02.018Z,17.33
2023-02-28T22:56:30.690Z,16.87
2023-02-28T22:58:59.870Z,16.42
2023-02-28T23:01:30.593Z,16.67
2023-02-28T23:03:58.815Z,16.42
2023-02-28T23:06:34.834Z,15.65
2023-02-28T23:09:05.745Z,15.65
2023-02-28T23:11:39.792Z,16.30
2023-02-28T23:14:07.922Z,16.30
2023-02-28T23:16:37.375Z,16.00
2023-02-28T23:19:11.308Z,16.20
2023-02-28T23:21:39.616Z,18.70
2023-02-28T23:24:14.404Z,18.02
2023-02-28T23:26:44.955Z,17.55
2023-02-28T23:29:13.703Z,18.98
2023-02-28T23:31:41.384Z,25.55
2023-02-28T23:34:09.692Z,19.03
2023-02-28T23:36:47.152Z,19.80
2023-02-28T23:39:19.138Z,18.00
2023-02-28T23:41:47.233Z,17.42
2023-02-28T23:44:17.027Z,16.35
2023-02-28T23:46:46.845Z,17.08
2023-02-28T23:49:16.044Z,21.98
2023-02-28T23:51:45.032Z,23.75
2023-02-28T23:54:12.530Z,16.30
2023-02-28T23:56:39.966Z,16.10
2023-02-28T23:59:07.734Z,13.90
